Terminal Aerodrome Forecast
Issued by NWS

Home | Current Version | Previous Version | Text Only | Print | Product List | Glossary On
Versions: 1 2 3 4 5 6 7 8 9 10 11 12 13 14 15 16
159
FTUS46 KHNX 101141
TAFMER
TAF
KMER 101141Z 1012/1112 13010KT 4SM -RA BR SCT010 OVC035
     FM110600 VRB04KT 2SM BR VCSH OVC015=

USA.gov is the U.S. government's official web portal to all federal, state and local government web resources and services.